Time;durP1;ratioP1;P1;durP2;ratioP2;P2;SDS_P1;SDS_P2;PMS_P1;PMS_P2;Temp;Humidity;BMP_temperature;BMP_pressure;BME280_temperature;BME280_humidity;BME280_pressure;Samples;Min_cycle;Max_cycle;Signal;HPM_P1;HPM_P2
2022/01/27 00:03:17;;;;;;;;;;;3.50;1.00;;;;;;5018666;28;19987;-80
2022/01/27 00:05:51;;;;;;;;;;;3.50;1.00;;;;;;5009030;28;19965;-81
2022/01/27 00:08:21;;;;;;;;;;;3.40;1.00;;;;;;5007895;28;19968;-81
2022/01/27 00:13:17;;;;;;;;;;;3.50;1.00;;;;;;5007856;28;19920;-80
2022/01/27 00:15:45;;;;;;;;;;;3.40;1.00;;;;;;5009888;28;19917;-80
2022/01/27 00:18:17;;;;;;;;;;;3.40;1.00;;;;;;5008987;28;19991;-80
2022/01/27 00:20:43;;;;;;;;;;;3.40;1.00;;;;;;5025982;28;19914;-80
2022/01/27 00:23:08;;;;;;;;;;;3.40;87.30;;;;;;5012471;28;19986;-80
2022/01/27 00:25:34;;;;;;;;;;;3.40;87.30;;;;;;5026744;28;20459;-80
2022/01/27 00:27:59;;;;;;;;;;;3.40;89.00;;;;;;5014368;28;19922;-81
2022/01/27 00:30:25;;;;;;;;;;;3.40;48.80;;;;;;5031707;28;19928;-80
2022/01/27 00:32:50;;;;;;;;;;;3.40;99.90;;;;;;5007823;28;20376;-80
2022/01/27 00:35:16;;;;;;;;;;;3.40;99.90;;;;;;5014448;28;20040;-80
2022/01/27 00:37:41;;;;;;;;;;;3.40;99.90;;;;;;5012676;28;19914;-80
2022/01/27 00:40:10;;;;;;;;;;;3.40;99.90;;;;;;5013426;28;19914;-80
2022/01/27 00:42:35;;;;;;;;;;;3.40;99.90;;;;;;5012640;28;19917;-80
2022/01/27 00:45:01;;;;;;;;;;;3.40;99.90;;;;;;5012988;28;19924;-80
2022/01/27 00:47:27;;;;;;;;;;;3.40;99.90;;;;;;5025029;28;19931;-80
2022/01/27 00:49:52;;;;;;;;;;;3.40;99.90;;;;;;5007447;28;19918;-80
2022/01/27 00:52:27;;;;;;;;;;;3.40;1.00;;;;;;5013331;28;19913;-81
2022/01/27 00:54:53;;;;;;;;;;;3.40;1.00;;;;;;5022715;28;19919;-80
2022/01/27 00:57:37;;;;;;;;;;;3.40;1.00;;;;;;5027658;28;20020;-81
2022/01/27 01:00:04;;;;;;;;;;;3.40;1.00;;;;;;5027373;28;20354;-80
2022/01/27 01:05:16;;;;;;;;;;;3.40;1.00;;;;;;5006973;28;19936;-80
2022/01/27 01:07:44;;;;;;;;;;;3.40;1.00;;;;;;5014768;28;19945;-80
2022/01/27 01:15:38;;;;;;;;;;;3.30;99.90;;;;;;5014753;28;19921;-80
2022/01/27 01:18:19;;;;;;;;;;;3.40;99.90;;;;;;5015344;28;19913;-80
2022/01/27 01:31:52;;;;;;;;;;;3.40;99.90;;;;;;5014192;28;19948;-80
2022/01/27 01:34:21;;;;;;;;;;;3.40;1.00;;;;;;5010506;28;20285;-80
2022/01/27 01:36:55;;;;;;;;;;;3.40;1.00;;;;;;5031597;28;19936;-80
2022/01/27 01:39:24;;;;;;;;;;;3.40;1.00;;;;;;5003475;28;19936;-80
2022/01/27 01:41:50;;;;;;;;;;;3.40;1.00;;;;;;5012109;28;20290;-80
2022/01/27 01:44:16;;;;;;;;;;;3.50;1.00;;;;;;5012699;28;19928;-80
2022/01/27 01:46:41;;;;;;;;;;;3.50;99.90;;;;;;5029551;28;19914;-80
2022/01/27 01:49:07;;;;;;;;;;;3.50;99.90;;;;;;5012502;28;19918;-80
2022/01/27 01:51:33;;;;;;;;;;;3.50;99.90;;;;;;5016256;28;19913;-80
2022/01/27 01:53:59;;;;;;;;;;;3.50;99.90;;;;;;5017084;28;19957;-80
2022/01/27 01:56:25;;;;;;;;;;;3.50;99.90;;;;;;5027493;28;19921;-80
2022/01/27 01:58:50;;;;;;;;;;;3.50;99.90;;;;;;5009514;28;20081;-80
2022/01/27 02:01:16;;;;;;;;;;;3.50;99.90;;;;;;5008386;28;19974;-80
2022/01/27 02:03:42;;;;;;;;;;;3.50;99.90;;;;;;5011696;28;19913;-80
2022/01/27 02:06:11;;;;;;;;;;;3.50;99.90;;;;;;5016880;28;19992;-80
2022/01/27 02:08:47;;;;;;;;;;;3.50;99.90;;;;;;5016359;28;19918;-80
2022/01/27 02:19:27;;;;;;;;;;;3.60;99.90;;;;;;5015425;28;19921;-80
2022/01/27 02:21:54;;;;;;;;;;;3.60;99.90;;;;;;5026769;28;19929;-80
2022/01/27 02:24:21;;;;;;;;;;;3.60;99.90;;;;;;5017609;28;20262;-80
2022/01/27 02:26:49;;;;;;;;;;;3.50;99.90;;;;;;5006979;28;19921;-81
2022/01/27 02:29:16;;;;;;;;;;;3.50;99.90;;;;;;5015673;28;20008;-80
2022/01/27 02:31:41;;;;;;;;;;;3.50;99.90;;;;;;5028622;28;20421;-80
2022/01/27 02:34:07;;;;;;;;;;;3.50;1.00;;;;;;5006540;28;19913;-79
2022/01/27 02:36:33;;;;;;;;;;;3.50;1.00;;;;;;5016595;28;19968;-80
2022/01/27 02:38:59;;;;;;;;;;;3.50;1.00;;;;;;5013418;28;20313;-80
2022/01/27 02:41:26;;;;;;;;;;;3.50;1.00;;;;;;5017751;28;19914;-80
2022/01/27 02:43:52;;;;;;;;;;;3.50;1.00;;;;;;5013309;28;19913;-80
2022/01/27 02:46:21;;;;;;;;;;;3.50;1.00;;;;;;5016107;28;19937;-80
2022/01/27 02:48:47;;;;;;;;;;;3.50;1.00;;;;;;5014113;28;19913;-80
2022/01/27 02:51:12;;;;;;;;;;;3.50;1.00;;;;;;5010665;28;19921;-80
2022/01/27 02:53:38;;;;;;;;;;;3.60;1.00;;;;;;5013946;28;19921;-80
2022/01/27 02:56:03;;;;;;;;;;;3.60;1.00;;;;;;5009346;28;19989;-80
2022/01/27 02:58:29;;;;;;;;;;;3.60;1.00;;;;;;5031867;28;20318;-81
2022/01/27 03:00:54;;;;;;;;;;;3.60;34.00;;;;;;5011022;28;19914;-80
2022/01/27 03:03:20;;;;;;;;;;;3.60;89.90;;;;;;5030726;28;19914;-82
2022/01/27 03:05:45;;;;;;;;;;;3.60;54.30;;;;;;5025547;28;19949;-81
2022/01/27 03:08:11;;;;;;;;;;;3.60;1.00;;;;;;5010489;28;19918;-79
2022/01/27 03:10:43;;;;;;;;;;;3.60;1.00;;;;;;5029409;28;19957;-81
2022/01/27 03:13:09;;;;;;;;;;;3.70;1.00;;;;;;5011955;28;19928;-80
2022/01/27 03:15:34;;;;;;;;;;;3.70;1.00;;;;;;5014083;28;20004;-81
2022/01/27 03:18:00;;;;;;;;;;;3.70;1.00;;;;;;5031654;28;19988;-80
2022/01/27 03:20:32;;;;;;;;;;;3.70;1.00;;;;;;5028003;28;19996;-80
2022/01/27 03:22:58;;;;;;;;;;;3.70;1.00;;;;;;5014238;28;19914;-80
2022/01/27 03:25:23;;;;;;;;;;;3.70;1.00;;;;;;5020408;28;19992;-81
2022/01/27 03:27:49;;;;;;;;;;;3.70;1.00;;;;;;5013851;28;19913;-80
2022/01/27 03:30:16;;;;;;;;;;;3.70;1.00;;;;;;5027481;28;19916;-81
2022/01/27 03:32:42;;;;;;;;;;;3.80;1.00;;;;;;5023850;28;19917;-80
2022/01/27 03:35:07;;;;;;;;;;;3.80;1.00;;;;;;5014116;28;19918;-80
2022/01/27 03:37:33;;;;;;;;;;;3.80;1.00;;;;;;5015815;28;19992;-80
2022/01/27 03:39:59;;;;;;;;;;;3.90;1.00;;;;;;5027400;28;19964;-81
2022/01/27 03:42:25;;;;;;;;;;;3.90;1.00;;;;;;5024261;28;19920;-81
2022/01/27 03:44:50;;;;;;;;;;;3.90;1.00;;;;;;5026523;28;19925;-80
2022/01/27 03:47:16;;;;;;;;;;;3.90;1.00;;;;;;5009652;28;19913;-81
2022/01/27 03:49:41;;;;;;;;;;;3.90;1.00;;;;;;5017740;28;19963;-80
2022/01/27 03:52:07;;;;;;;;;;;3.90;1.00;;;;;;5016619;28;19909;-79
2022/01/27 03:54:32;;;;;;;;;;;4.00;1.00;;;;;;5009085;28;20011;-80
2022/01/27 03:56:59;;;;;;;;;;;4.00;1.00;;;;;;5014485;28;19968;-81
2022/01/27 03:59:26;;;;;;;;;;;4.00;1.00;;;;;;5011692;28;19969;-80
2022/01/27 04:01:51;;;;;;;;;;;4.00;1.00;;;;;;5009146;28;19960;-80
2022/01/27 04:04:17;;;;;;;;;;;4.00;1.00;;;;;;5011243;28;20370;-80
2022/01/27 04:06:42;;;;;;;;;;;4.00;1.00;;;;;;5011296;28;19917;-80
2022/01/27 04:09:09;;;;;;;;;;;4.10;1.00;;;;;;5015001;28;19918;-80
2022/01/27 04:11:35;;;;;;;;;;;4.10;1.00;;;;;;5009301;28;19914;-81
2022/01/27 04:14:01;;;;;;;;;;;4.10;1.00;;;;;;5014208;28;19918;-80
2022/01/27 04:16:26;;;;;;;;;;;4.20;1.00;;;;;;5023020;28;19913;-81
2022/01/27 04:18:52;;;;;;;;;;;4.20;1.00;;;;;;5008351;28;19910;-80
2022/01/27 04:21:18;;;;;;;;;;;4.20;1.00;;;;;;5015878;28;19914;-81
2022/01/27 04:23:44;;;;;;;;;;;4.30;1.00;;;;;;5013015;28;19913;-80
2022/01/27 04:26:11;;;;;;;;;;;4.30;1.00;;;;;;5015784;28;19916;-81
2022/01/27 04:28:38;;;;;;;;;;;4.30;1.00;;;;;;5012051;28;19918;-79
2022/01/27 04:31:06;;;;;;;;;;;4.30;1.00;;;;;;5017801;28;19921;-80
2022/01/27 04:33:34;;;;;;;;;;;4.30;1.00;;;;;;5017802;28;20004;-81
2022/01/27 04:36:05;;;;;;;;;;;4.40;1.00;;;;;;5013303;28;19924;-81
2022/01/27 04:41:34;;;;;;;;;;;4.40;1.00;;;;;;5018862;28;19913;-80
2022/01/27 04:44:11;;;;;;;;;;;4.40;1.00;;;;;;5016556;28;19909;-80
2022/01/27 04:47:25;;;;;;;;;;;4.40;1.00;;;;;;5015710;28;19921;-80
2022/01/27 04:49:25;;;;;;;;;;;4.50;1.00;;;;;;5019902;28;20373;-80
2022/01/27 04:51:51;;;;;;;;;;;4.50;1.00;;;;;;5012017;28;19918;-80
2022/01/27 04:54:24;;;;;;;;;;;4.60;1.00;;;;;;5018429;28;19918;-80
2022/01/27 04:56:49;;;;;;;;;;;4.60;1.00;;;;;;5027058;28;19913;-81
2022/01/27 04:59:20;;;;;;;;;;;4.60;1.00;;;;;;5018207;28;20322;-80
2022/01/27 05:01:54;;;;;;;;;;;4.60;1.00;;;;;;5013145;28;19921;-80
2022/01/27 05:04:22;;;;;;;;;;;4.70;1.00;;;;;;5017372;28;20286;-80
2022/01/27 05:06:49;;;;;;;;;;;4.70;1.00;;;;;;5015943;28;19944;-81
2022/01/27 05:09:15;;;;;;;;;;;4.70;1.00;;;;;;5012094;28;20349;-81
2022/01/27 05:11:51;;;;;;;;;;;4.80;99.90;;;;;;5014701;28;19917;-81
2022/01/27 05:14:26;;;;;;;;;;;4.80;99.90;;;;;;5014826;28;19921;-80
2022/01/27 05:16:52;;;;;;;;;;;4.80;99.90;;;;;;5017132;28;19953;-80
2022/01/27 05:19:18;;;;;;;;;;;4.80;99.90;;;;;;5019248;28;19993;-80
2022/01/27 05:21:43;;;;;;;;;;;4.80;99.90;;;;;;5021381;28;19913;-80
2022/01/27 05:24:10;;;;;;;;;;;4.80;1.00;;;;;;5017235;28;20398;-81
2022/01/27 05:26:35;;;;;;;;;;;4.80;1.00;;;;;;5015650;28;19913;-81
2022/01/27 05:29:04;;;;;;;;;;;4.80;1.00;;;;;;5014837;28;20299;-80
2022/01/27 05:31:30;;;;;;;;;;;4.80;1.00;;;;;;5029245;28;20271;-80
2022/01/27 05:33:55;;;;;;;;;;;4.80;1.00;;;;;;5026810;28;19921;-80
2022/01/27 05:36:21;;;;;;;;;;;4.80;1.00;;;;;;5033477;28;19921;-80
2022/01/27 05:38:46;;;;;;;;;;;4.90;1.00;;;;;;5011833;28;19959;-80
2022/01/27 05:41:12;;;;;;;;;;;4.90;1.00;;;;;;5014183;28;19921;-81
2022/01/27 05:43:38;;;;;;;;;;;5.00;1.00;;;;;;5012420;28;19943;-80
2022/01/27 05:46:04;;;;;;;;;;;5.00;1.00;;;;;;5012365;28;19977;-80
2022/01/27 05:48:29;;;;;;;;;;;5.00;1.00;;;;;;5023895;28;19937;-80
2022/01/27 05:50:56;;;;;;;;;;;5.00;1.00;;;;;;5015866;28;20060;-81
2022/01/27 05:53:22;;;;;;;;;;;5.10;1.00;;;;;;5017466;28;19964;-80
2022/01/27 05:55:48;;;;;;;;;;;5.00;1.00;;;;;;5024643;28;20347;-80
2022/01/27 05:58:13;;;;;;;;;;;5.10;1.00;;;;;;5016234;28;19914;-80
2022/01/27 06:00:39;;;;;;;;;;;5.10;1.00;;;;;;5008571;28;19918;-81
2022/01/27 06:03:04;;;;;;;;;;;5.10;1.00;;;;;;5014641;28;20345;-81
2022/01/27 06:05:30;;;;;;;;;;;5.10;1.00;;;;;;5015424;28;19956;-81
2022/01/27 06:07:55;;;;;;;;;;;5.10;1.00;;;;;;5016787;28;19913;-80
2022/01/27 06:10:21;;;;;;;;;;;5.10;1.00;;;;;;5032080;28;19976;-80
2022/01/27 06:12:47;;;;;;;;;;;5.10;1.00;;;;;;5024518;28;20282;-81
2022/01/27 06:15:13;;;;;;;;;;;5.10;1.00;;;;;;5016258;28;20294;-81
2022/01/27 06:17:39;;;;;;;;;;;5.10;1.00;;;;;;5024920;28;19913;-80
2022/01/27 06:20:04;;;;;;;;;;;5.10;1.00;;;;;;5013734;28;19914;-82
2022/01/27 06:22:30;;;;;;;;;;;5.10;1.00;;;;;;5013241;28;19971;-80
2022/01/27 06:24:55;;;;;;;;;;;5.10;1.00;;;;;;5017249;28;19913;-80
2022/01/27 06:27:21;;;;;;;;;;;5.10;1.00;;;;;;5013404;28;19920;-80
2022/01/27 06:29:46;;;;;;;;;;;5.20;1.00;;;;;;5032031;28;19917;-81
2022/01/27 06:32:12;;;;;;;;;;;5.20;1.00;;;;;;5015486;28;19921;-80
2022/01/27 06:34:37;;;;;;;;;;;5.20;1.00;;;;;;5010780;28;19917;-80
2022/01/27 06:37:03;;;;;;;;;;;5.30;1.00;;;;;;5014249;28;20401;-80
2022/01/27 06:39:28;;;;;;;;;;;5.30;1.00;;;;;;5013515;28;19925;-80
2022/01/27 06:41:54;;;;;;;;;;;5.30;1.00;;;;;;5008418;28;19962;-81
2022/01/27 06:44:19;;;;;;;;;;;5.30;1.00;;;;;;5024998;28;19919;-80
2022/01/27 06:46:44;;;;;;;;;;;5.30;1.00;;;;;;5015210;28;19921;-81
2022/01/27 06:49:16;;;;;;;;;;;5.30;1.00;;;;;;5029064;28;19953;-81
2022/01/27 06:51:42;;;;;;;;;;;5.30;1.00;;;;;;5014690;28;19992;-80
2022/01/27 06:54:07;;;;;;;;;;;5.30;1.00;;;;;;5012353;28;19913;-81
2022/01/27 06:56:33;;;;;;;;;;;5.40;1.00;;;;;;5022734;28;19913;-82
2022/01/27 06:58:58;;;;;;;;;;;5.50;1.00;;;;;;5027171;28;19932;-81
2022/01/27 07:01:24;;;;;;;;;;;5.50;99.90;;;;;;5019542;28;19914;-81
2022/01/27 07:03:49;;;;;;;;;;;5.50;99.90;;;;;;5022209;28;20146;-81
2022/01/27 07:06:15;;;;;;;;;;;5.50;99.90;;;;;;5019137;28;20266;-81
2022/01/27 07:08:40;;;;;;;;;;;5.50;99.90;;;;;;5030986;28;19921;-81
2022/01/27 07:11:06;;;;;;;;;;;5.50;99.90;;;;;;5019398;28;19913;-81
2022/01/27 07:13:31;;;;;;;;;;;5.50;1.00;;;;;;5021036;28;19937;-81
2022/01/27 07:15:57;;;;;;;;;;;5.60;1.00;;;;;;5017751;28;19920;-81
2022/01/27 07:18:23;;;;;;;;;;;5.60;1.00;;;;;;5020690;28;20012;-81
2022/01/27 07:20:48;;;;;;;;;;;5.60;1.00;;;;;;5036537;28;19964;-81
2022/01/27 07:23:14;;;;;;;;;;;5.70;99.90;;;;;;5021035;28;19960;-80
2022/01/27 07:25:39;;;;;;;;;;;5.70;99.90;;;;;;5022356;28;19918;-81
2022/01/27 07:28:05;;;;;;;;;;;5.70;99.90;;;;;;5015965;28;19914;-80
2022/01/27 07:30:30;;;;;;;;;;;5.70;99.90;;;;;;5016024;28;19984;-80
2022/01/27 07:32:56;;;;;;;;;;;5.80;99.90;;;;;;5004096;28;19941;-80
2022/01/27 07:35:21;;;;;;;;;;;5.80;99.90;;;;;;5013475;28;19922;-80
2022/01/27 07:37:47;;;;;;;;;;;5.80;99.90;;;;;;5012342;28;20619;-80
2022/01/27 07:40:13;;;;;;;;;;;5.90;99.90;;;;;;5006638;28;19921;-80
2022/01/27 07:42:40;;;;;;;;;;;6.00;99.90;;;;;;5012961;28;20131;-80
2022/01/27 07:45:07;;;;;;;;;;;6.00;99.90;;;;;;5010313;28;19940;-80
2022/01/27 07:47:33;;;;;;;;;;;6.00;96.80;;;;;;5009135;28;19913;-80
2022/01/27 07:49:59;;;;;;;;;;;6.00;48.30;;;;;;5008121;28;19964;-80
2022/01/27 07:52:24;;;;;;;;;;;6.00;52.50;;;;;;5020101;28;19976;-80
2022/01/27 07:54:50;;;;;;;;;;;6.10;92.00;;;;;;5014125;28;19917;-79
2022/01/27 07:57:16;;;;;;;;;;;6.10;96.90;;;;;;5005642;28;19924;-79
2022/01/27 07:59:42;;;;;;;;;;;6.10;98.20;;;;;;5028592;28;19922;-80
2022/01/27 08:02:07;;;;;;;;;;;6.10;99.90;;;;;;5010465;28;20377;-79
2022/01/27 08:04:33;;;;;;;;;;;6.10;41.10;;;;;;5000884;28;19914;-79
2022/01/27 08:07:00;;;;;;;;;;;6.10;65.80;;;;;;5009108;28;20523;-79
2022/01/27 08:09:26;;;;;;;;;;;6.10;99.90;;;;;;5031081;28;19913;-79
2022/01/27 08:11:51;;;;;;;;;;;6.10;99.90;;;;;;5012922;28;19913;-79
2022/01/27 08:14:17;;;;;;;;;;;6.10;99.90;;;;;;5006303;28;20000;-78
2022/01/27 08:16:42;;;;;;;;;;;6.10;99.90;;;;;;5001562;28;19913;-79
2022/01/27 08:19:08;;;;;;;;;;;6.10;99.90;;;;;;5009910;28;19914;-79
2022/01/27 08:21:33;;;;;;;;;;;6.10;99.90;;;;;;5007369;28;19917;-79
2022/01/27 08:23:59;;;;;;;;;;;6.10;1.00;;;;;;5005529;28;20375;-79
2022/01/27 08:26:41;;;;;;;;;;;6.10;99.90;;;;;;4999071;28;20037;-79
2022/01/27 08:34:28;;;;;;;;;;;6.10;99.90;;;;;;5006713;28;19967;-79
2022/01/27 08:36:54;;;;;;;;;;;6.10;99.90;;;;;;5023106;28;19918;-79
2022/01/27 08:39:19;;;;;;;;;;;6.00;1.00;;;;;;5003835;28;20435;-79
2022/01/27 08:41:45;;;;;;;;;;;6.00;1.00;;;;;;5021228;28;20011;-79
2022/01/27 08:44:10;;;;;;;;;;;6.00;1.00;;;;;;5011777;28;19914;-79
2022/01/27 08:46:36;;;;;;;;;;;5.90;1.00;;;;;;5008796;28;19921;-79
2022/01/27 08:49:02;;;;;;;;;;;5.90;1.00;;;;;;5009229;28;20378;-79
2022/01/27 08:51:30;;;;;;;;;;;5.90;1.00;;;;;;5025664;28;19981;-79
2022/01/27 08:53:55;;;;;;;;;;;5.80;1.00;;;;;;5009987;28;19914;-79
2022/01/27 08:56:21;;;;;;;;;;;5.80;1.00;;;;;;5013201;28;19920;-80
2022/01/27 08:58:46;;;;;;;;;;;5.70;1.00;;;;;;5013027;28;20332;-80
2022/01/27 09:01:12;;;;;;;;;;;5.80;1.00;;;;;;5008713;28;19921;-80
2022/01/27 09:03:38;;;;;;;;;;;5.80;1.00;;;;;;5009057;28;19917;-80
2022/01/27 09:06:03;;;;;;;;;;;5.70;1.00;;;;;;5011152;28;19917;-80
2022/01/27 09:08:29;;;;;;;;;;;5.70;1.00;;;;;;5007691;28;20362;-80
2022/01/27 09:10:54;;;;;;;;;;;5.80;1.00;;;;;;5009569;28;20012;-79
2022/01/27 09:13:20;;;;;;;;;;;5.80;1.00;;;;;;5026734;28;19918;-79
2022/01/27 09:15:48;;;;;;;;;;;5.90;1.00;;;;;;5021041;28;19921;-79
2022/01/27 09:18:14;;;;;;;;;;;6.00;1.00;;;;;;5014230;28;20487;-80
2022/01/27 09:20:40;;;;;;;;;;;6.10;1.00;;;;;;5019517;28;19913;-79
2022/01/27 09:23:12;;;;;;;;;;;6.10;1.00;;;;;;5015698;28;19920;-80
2022/01/27 09:25:43;;;;;;;;;;;6.10;1.00;;;;;;5018833;28;19909;-81
2022/01/27 09:28:08;;;;;;;;;;;6.00;1.00;;;;;;5014494;28;19939;-80
2022/01/27 09:30:34;;;;;;;;;;;6.00;1.00;;;;;;5015894;28;19960;-79
2022/01/27 09:32:59;;;;;;;;;;;6.00;1.00;;;;;;5012633;28;19940;-79
2022/01/27 09:35:27;;;;;;;;;;;6.00;1.00;;;;;;5009381;28;19925;-79
2022/01/27 09:37:52;;;;;;;;;;;6.00;1.00;;;;;;5013200;28;20390;-79
2022/01/27 09:40:18;;;;;;;;;;;6.00;1.00;;;;;;5011724;28;19989;-79
2022/01/27 09:42:49;;;;;;;;;;;6.00;1.00;;;;;;5020490;28;19914;-79
2022/01/27 09:45:15;;;;;;;;;;;6.00;1.00;;;;;;5031489;28;19920;-79
2022/01/27 09:47:42;;;;;;;;;;;6.00;1.00;;;;;;5015058;28;20285;-79
2022/01/27 09:52:40;;;;;;;;;;;6.10;1.00;;;;;;5015740;28;19936;-79
2022/01/27 09:55:06;;;;;;;;;;;6.20;1.00;;;;;;5011786;28;19913;-79
2022/01/27 09:57:31;;;;;;;;;;;6.20;1.00;;;;;;5008231;28;19921;-79
2022/01/27 09:59:57;;;;;;;;;;;6.20;1.00;;;;;;5009983;28;19918;-79
2022/01/27 10:02:22;;;;;;;;;;;6.30;1.00;;;;;;5014920;28;20302;-79
2022/01/27 10:04:51;;;;;;;;;;;6.30;1.00;;;;;;5013919;28;19925;-78
2022/01/27 10:07:18;;;;;;;;;;;6.30;1.00;;;;;;5016479;28;19920;-79
2022/01/27 10:10:02;;;;;;;;;;;6.40;1.00;;;;;;5014713;28;19921;-78
2022/01/27 10:12:30;;;;;;;;;;;6.40;1.00;;;;;;5013185;28;19920;-79
2022/01/27 10:14:59;;;;;;;;;;;6.40;1.00;;;;;;5028023;28;19914;-79
2022/01/27 10:17:25;;;;;;;;;;;6.50;1.00;;;;;;5010912;28;19913;-78
2022/01/27 10:19:54;;;;;;;;;;;6.50;1.00;;;;;;5011537;28;19920;-79
2022/01/27 10:22:20;;;;;;;;;;;6.50;1.00;;;;;;5011630;28;19949;-79
2022/01/27 10:24:46;;;;;;;;;;;6.50;1.00;;;;;;5027823;28;19921;-79
2022/01/27 10:27:24;;;;;;;;;;;6.60;1.00;;;;;;5015783;28;19917;-79
2022/01/27 10:32:39;;;;;;;;;;;6.70;1.00;;;;;;5013105;28;19921;-79
2022/01/27 10:35:05;;;;;;;;;;;6.70;1.00;;;;;;5014688;28;19922;-79
2022/01/27 10:37:50;;;;;;;;;;;6.70;1.00;;;;;;5032884;28;19920;-80
2022/01/27 10:40:24;;;;;;;;;;;6.80;1.00;;;;;;5030574;28;19914;-79
2022/01/27 10:42:59;;;;;;;;;;;6.80;1.00;;;;;;5035979;28;19940;-79
2022/01/27 10:45:24;;;;;;;;;;;6.80;1.00;;;;;;5015332;28;19968;-79
2022/01/27 10:47:50;;;;;;;;;;;6.70;1.00;;;;;;5012784;28;19914;-79
2022/01/27 10:50:16;;;;;;;;;;;6.70;1.00;;;;;;5016635;28;19999;-80
2022/01/27 10:52:50;;;;;;;;;;;6.70;1.00;;;;;;5031930;28;19918;-79
2022/01/27 10:55:20;;;;;;;;;;;6.70;1.00;;;;;;5008384;28;19985;-79
2022/01/27 10:57:52;;;;;;;;;;;6.70;1.00;;;;;;5019716;28;19974;-79
2022/01/27 11:00:19;;;;;;;;;;;6.70;1.00;;;;;;5017150;28;20289;-79
2022/01/27 11:02:48;;;;;;;;;;;6.80;1.00;;;;;;5025799;28;19975;-80
2022/01/27 11:05:17;;;;;;;;;;;6.80;1.00;;;;;;5024659;28;19914;-79
2022/01/27 11:07:43;;;;;;;;;;;6.90;1.00;;;;;;5021812;28;19921;-79
2022/01/27 11:10:08;;;;;;;;;;;6.90;1.00;;;;;;5018260;28;19917;-80
2022/01/27 11:12:34;;;;;;;;;;;6.90;1.00;;;;;;5026360;28;19913;-79
2022/01/27 11:15:00;;;;;;;;;;;6.90;1.00;;;;;;5029127;28;19941;-80
2022/01/27 11:17:29;;;;;;;;;;;6.90;1.00;;;;;;5015576;28;20008;-79
2022/01/27 11:20:16;;;;;;;;;;;6.90;1.00;;;;;;5004294;28;20205;-81
2022/01/27 11:22:47;;;;;;;;;;;6.90;1.00;;;;;;5011866;28;19917;-80
2022/01/27 11:27:44;;;;;;;;;;;6.90;1.00;;;;;;5000401;28;20457;-80
2022/01/27 11:30:22;;;;;;;;;;;6.90;1.00;;;;;;5015172;28;20491;-79
2022/01/27 11:32:53;;;;;;;;;;;6.90;1.00;;;;;;5016872;28;19952;-80
2022/01/27 11:35:21;;;;;;;;;;;7.00;1.00;;;;;;5015494;28;19983;-80
2022/01/27 11:37:53;;;;;;;;;;;7.00;1.00;;;;;;5016914;28;20353;-79
2022/01/27 11:40:20;;;;;;;;;;;6.90;1.00;;;;;;5017297;28;19968;-80
2022/01/27 11:42:54;;;;;;;;;;;6.90;1.00;;;;;;5016468;28;19996;-79
2022/01/27 11:45:20;;;;;;;;;;;7.00;1.00;;;;;;5006709;28;19997;-79
2022/01/27 11:47:49;;;;;;;;;;;6.90;1.00;;;;;;5013868;28;19936;-79
2022/01/27 11:50:33;;;;;;;;;;;6.90;1.00;;;;;;5020873;28;19924;-79
2022/01/27 11:53:00;;;;;;;;;;;6.90;1.00;;;;;;5017481;28;19924;-79
2022/01/27 11:55:26;;;;;;;;;;;6.90;1.00;;;;;;5016285;28;19968;-79
2022/01/27 11:57:55;;;;;;;;;;;6.90;1.00;;;;;;5018169;28;19918;-80
2022/01/27 12:00:21;;;;;;;;;;;6.90;1.00;;;;;;5011599;28;19972;-79
2022/01/27 12:02:56;;;;;;;;;;;6.90;1.00;;;;;;5007229;28;19910;-79
2022/01/27 12:05:25;;;;;;;;;;;6.90;1.00;;;;;;5021594;28;19913;-79
2022/01/27 12:08:09;;;;;;;;;;;6.90;1.00;;;;;;5027539;28;19913;-79
2022/01/27 12:11:05;;;;;;;;;;;6.90;1.00;;;;;;5027179;28;19914;-79
2022/01/27 12:13:35;;;;;;;;;;;6.90;1.00;;;;;;5024424;28;19921;-79
2022/01/27 12:19:00;;;;;;;;;;;6.90;1.00;;;;;;5008454;28;19910;-79
2022/01/27 12:21:35;;;;;;;;;;;6.90;1.00;;;;;;5010902;28;19913;-79
2022/01/27 12:24:22;;;;;;;;;;;6.90;1.00;;;;;;5022125;28;20017;-80
2022/01/27 12:26:50;;;;;;;;;;;6.90;1.00;;;;;;5023347;28;19965;-79
2022/01/27 12:29:22;;;;;;;;;;;6.90;1.00;;;;;;5025028;28;19924;-80
2022/01/27 12:31:48;;;;;;;;;;;6.90;1.00;;;;;;5041746;28;19910;-79
2022/01/27 12:34:13;;;;;;;;;;;6.90;1.00;;;;;;5038967;28;20012;-80
2022/01/27 12:36:39;;;;;;;;;;;6.90;1.00;;;;;;5026147;28;19913;-79
2022/01/27 12:39:05;;;;;;;;;;;6.90;1.00;;;;;;5020409;28;19937;-79
2022/01/27 12:41:37;;;;;;;;;;;6.90;1.00;;;;;;5025368;28;20389;-79
2022/01/27 12:44:10;;;;;;;;;;;7.00;1.00;;;;;;5022247;28;19914;-79
2022/01/27 12:46:36;;;;;;;;;;;7.00;1.00;;;;;;5039022;28;19981;-79
2022/01/27 12:49:03;;;;;;;;;;;7.00;1.00;;;;;;5040491;28;19913;-79
2022/01/27 12:51:45;;;;;;;;;;;7.00;1.00;;;;;;5027969;28;20430;-79
2022/01/27 12:54:11;;;;;;;;;;;7.10;1.00;;;;;;5020497;28;19941;-79
2022/01/27 12:56:36;;;;;;;;;;;7.10;1.00;;;;;;5025517;28;19917;-79
2022/01/27 12:59:11;;;;;;;;;;;7.10;1.00;;;;;;5024137;28;19917;-79
2022/01/27 13:01:37;;;;;;;;;;;7.10;1.00;;;;;;5027188;28;19914;-79
2022/01/27 13:04:03;;;;;;;;;;;7.20;1.00;;;;;;5022228;28;19944;-79
2022/01/27 13:06:29;;;;;;;;;;;7.20;1.00;;;;;;5026373;28;19913;-80
2022/01/27 13:09:11;;;;;;;;;;;7.20;1.00;;;;;;5017075;28;19957;-80
2022/01/27 13:11:39;;;;;;;;;;;7.10;1.00;;;;;;5028368;28;20386;-79
2022/01/27 13:14:05;;;;;;;;;;;7.10;1.00;;;;;;5026730;28;19914;-80
2022/01/27 13:16:38;;;;;;;;;;;7.20;1.00;;;;;;5021901;28;19963;-79
2022/01/27 13:19:09;;;;;;;;;;;7.20;1.00;;;;;;5028316;28;19913;-80
2022/01/27 13:21:37;;;;;;;;;;;7.20;1.00;;;;;;5021304;28;20284;-79
2022/01/27 13:24:15;;;;;;;;;;;7.20;1.00;;;;;;5026039;28;19914;-80
2022/01/27 13:26:44;;;;;;;;;;;7.20;1.00;;;;;;5022332;28;19953;-79
2022/01/27 13:29:10;;;;;;;;;;;7.20;1.00;;;;;;5022115;28;19921;-80
2022/01/27 13:31:36;;;;;;;;;;;7.20;1.00;;;;;;5025629;28;20489;-79
2022/01/27 13:34:02;;;;;;;;;;;7.20;1.00;;;;;;5024025;28;20003;-79
2022/01/27 13:36:28;;;;;;;;;;;7.20;1.00;;;;;;5023807;28;19917;-79
2022/01/27 13:39:02;;;;;;;;;;;7.20;1.00;;;;;;5015644;28;19909;-79
2022/01/27 13:41:29;;;;;;;;;;;7.20;1.00;;;;;;5004844;28;20359;-79
2022/01/27 13:44:02;;;;;;;;;;;7.30;1.00;;;;;;5011454;28;19909;-79
2022/01/27 13:46:40;;;;;;;;;;;7.30;1.00;;;;;;5022594;28;19910;-79
2022/01/27 13:49:06;;;;;;;;;;;7.30;1.00;;;;;;5021089;28;19913;-79
2022/01/27 13:51:32;;;;;;;;;;;7.30;1.00;;;;;;5022621;28;19976;-79
2022/01/27 13:54:05;;;;;;;;;;;7.30;1.00;;;;;;5019849;28;20010;-79
2022/01/27 13:56:41;;;;;;;;;;;7.40;1.00;;;;;;5020291;28;20374;-79
2022/01/27 13:59:29;;;;;;;;;;;7.40;1.00;;;;;;5015864;28;19920;-79
2022/01/27 14:02:20;;;;;;;;;;;7.40;1.00;;;;;;5006670;28;19919;-80
2022/01/27 14:04:47;;;;;;;;;;;7.40;1.00;;;;;;5015698;28;20375;-79
2022/01/27 14:07:23;;;;;;;;;;;7.50;1.00;;;;;;5013714;28;20620;-79
2022/01/27 14:09:48;;;;;;;;;;;7.50;1.00;;;;;;5023292;28;19925;-79
2022/01/27 14:12:19;;;;;;;;;;;7.50;1.00;;;;;;5016289;28;20325;-78
2022/01/27 14:14:49;;;;;;;;;;;7.50;1.00;;;;;;5010359;28;20352;-79
2022/01/27 14:17:25;;;;;;;;;;;7.50;1.00;;;;;;5012815;28;19921;-79
2022/01/27 14:19:51;;;;;;;;;;;7.50;1.00;;;;;;5017343;28;19920;-79
2022/01/27 14:22:20;;;;;;;;;;;7.50;1.00;;;;;;5018124;28;20278;-79
2022/01/27 14:25:01;;;;;;;;;;;7.50;1.00;;;;;;5016685;28;19938;-79
2022/01/27 14:27:34;;;;;;;;;;;7.50;1.00;;;;;;5032454;28;20416;-79
2022/01/27 14:29:59;;;;;;;;;;;7.50;1.00;;;;;;5028942;28;20410;-79
2022/01/27 14:32:25;;;;;;;;;;;7.50;1.00;;;;;;5024464;28;19957;-79
2022/01/27 14:34:51;;;;;;;;;;;7.50;1.00;;;;;;5012858;28;19921;-80
2022/01/27 14:37:16;;;;;;;;;;;7.50;1.00;;;;;;5009769;28;19913;-79
2022/01/27 14:39:41;;;;;;;;;;;7.50;1.00;;;;;;5021704;28;20291;-79
2022/01/27 14:42:07;;;;;;;;;;;7.50;1.00;;;;;;5013884;28;20074;-79
2022/01/27 14:44:35;;;;;;;;;;;7.50;1.00;;;;;;5015517;28;19914;-79
2022/01/27 14:47:02;;;;;;;;;;;7.50;1.00;;;;;;5018570;28;19916;-79
2022/01/27 14:49:28;;;;;;;;;;;7.50;1.00;;;;;;5030096;28;19917;-79
2022/01/27 14:51:54;;;;;;;;;;;7.50;1.00;;;;;;5030723;28;20370;-79
2022/01/27 14:54:19;;;;;;;;;;;7.50;1.00;;;;;;5024709;28;19925;-79
2022/01/27 14:56:45;;;;;;;;;;;7.50;1.00;;;;;;5012187;28;19975;-79
2022/01/27 14:59:10;;;;;;;;;;;7.60;1.00;;;;;;5014567;28;19920;-79
2022/01/27 15:01:36;;;;;;;;;;;7.60;1.00;;;;;;5015835;28;19996;-79
2022/01/27 15:04:02;;;;;;;;;;;7.60;1.00;;;;;;5009623;28;19920;-80
2022/01/27 15:06:27;;;;;;;;;;;7.60;1.00;;;;;;5003877;28;19914;-79
2022/01/27 15:08:55;;;;;;;;;;;7.60;1.00;;;;;;5012350;28;20298;-79
2022/01/27 15:11:21;;;;;;;;;;;7.60;1.00;;;;;;5025546;28;19914;-79
2022/01/27 15:13:48;;;;;;;;;;;7.60;1.00;;;;;;5007778;28;19920;-79
2022/01/27 15:19:15;;;;;;;;;;;7.70;1.00;;;;;;5018307;28;20003;-78
2022/01/27 15:21:40;;;;;;;;;;;7.70;1.00;;;;;;5017801;28;20000;-78
2022/01/27 15:24:06;;;;;;;;;;;7.70;1.00;;;;;;5031841;28;19941;-79
2022/01/27 15:26:32;;;;;;;;;;;7.70;1.00;;;;;;5011526;28;19914;-79
2022/01/27 15:28:58;;;;;;;;;;;7.70;1.00;;;;;;5013760;28;19922;-79
2022/01/27 15:31:24;;;;;;;;;;;7.70;1.00;;;;;;5016455;28;19925;-79
2022/01/27 15:33:49;;;;;;;;;;;7.70;1.00;;;;;;5013245;28;19918;-79
2022/01/27 15:36:16;;;;;;;;;;;7.70;1.00;;;;;;5009970;28;19925;-79
2022/01/27 15:38:42;;;;;;;;;;;7.70;1.00;;;;;;5017952;28;19909;-79